createdAt,value
2018-11-29T00:02:06.521Z,75.33
2018-11-29T00:04:52.953Z,75.46
2018-11-29T00:07:40.093Z,75.37
2018-11-29T00:10:11.757Z,75.50
2018-11-29T00:12:43.690Z,75.10
2018-11-29T00:15:16.894Z,75.14
2018-11-29T00:17:48.658Z,75.48
2018-11-29T00:20:21.071Z,75.71
2018-11-29T00:22:53.404Z,74.97
2018-11-29T00:25:25.430Z,75.21
2018-11-29T00:27:57.060Z,75.17
2018-11-29T00:30:29.712Z,75.80
2018-11-29T00:33:01.777Z,75.70
2018-11-29T00:35:33.608Z,75.95
2018-11-29T00:38:05.553Z,75.84
2018-11-29T00:40:37.307Z,75.23
2018-11-29T00:43:10.682Z,75.12
2018-11-29T00:45:42.835Z,75.15
2018-11-29T00:48:15.696Z,75.57
2018-11-29T00:50:47.576Z,75.70
2018-11-29T00:53:19.521Z,75.39
2018-11-29T00:55:51.063Z,74.67
2018-11-29T00:58:22.612Z,75.42
2018-11-29T01:00:54.504Z,75.28
2018-11-29T01:03:26.251Z,75.32
2018-11-29T01:05:58.196Z,74.56
2018-11-29T01:08:30.427Z,75.96
2018-11-29T01:11:02.644Z,75.41
2018-11-29T01:13:34.535Z,75.63
2018-11-29T01:16:06.804Z,75.48
2018-11-29T01:18:38.666Z,75.56
2018-11-29T01:21:10.381Z,75.48
2018-11-29T01:23:42.117Z,75.23
2018-11-29T01:26:13.862Z,75.65
2018-11-29T01:28:45.680Z,75.24
2018-11-29T01:31:17.788Z,75.96
2018-11-29T01:33:49.503Z,75.58
2018-11-29T01:36:21.244Z,75.29
2018-11-29T01:38:53.067Z,75.73
2018-11-29T01:41:25.066Z,68.88
2018-11-29T01:43:56.818Z,66.85
2018-11-29T01:46:29.456Z,66.93
2018-11-29T01:49:01.550Z,66.45
2018-11-29T01:51:33.909Z,66.47
2018-11-29T01:54:05.744Z,66.82
2018-11-29T01:56:37.844Z,66.43
2018-11-29T01:59:10.021Z,67.23
2018-11-29T02:01:42.660Z,66.88
2018-11-29T02:04:14.625Z,67.15
2018-11-29T02:06:46.714Z,66.47
2018-11-29T02:09:18.452Z,67.07
2018-11-29T02:11:50.844Z,66.67
2018-11-29T02:14:23.128Z,66.78
2018-11-29T02:16:55.466Z,67.32
2018-11-29T02:19:27.118Z,66.64
2018-11-29T02:21:59.044Z,66.50
2018-11-29T02:24:30.934Z,66.25
2018-11-29T02:27:02.846Z,67.04
2018-11-29T02:29:34.796Z,66.99
2018-11-29T02:32:06.787Z,67.22
2018-11-29T02:34:38.553Z,66.86
2018-11-29T02:37:09.959Z,67.07
2018-11-29T02:39:41.771Z,66.41
2018-11-29T02:42:13.844Z,66.85
2018-11-29T02:44:46.029Z,66.72
2018-11-29T02:47:18.223Z,66.66
2018-11-29T02:49:50.329Z,67.36
2018-11-29T02:52:22.571Z,66.78
2018-11-29T02:54:54.504Z,66.91
2018-11-29T02:57:26.233Z,67.35
2018-11-29T02:59:59.318Z,67.46
2018-11-29T03:02:31.012Z,67.65
2018-11-29T03:05:03.003Z,67.63
2018-11-29T03:07:37.633Z,67.73
2018-11-29T03:10:11.054Z,67.21
2018-11-29T03:12:45.758Z,67.26
2018-11-29T03:15:17.646Z,67.65
2018-11-29T03:17:49.873Z,68.85
2018-11-29T03:20:21.692Z,68.51
2018-11-29T03:22:54.087Z,68.15
2018-11-29T03:25:26.349Z,67.86
2018-11-29T03:27:58.291Z,68.00
2018-11-29T03:30:30.147Z,68.02
2018-11-29T03:33:02.408Z,68.06
2018-11-29T03:35:34.340Z,68.03
2018-11-29T03:38:06.127Z,67.26
2018-11-29T03:40:38.060Z,67.94
2018-11-29T03:43:09.810Z,67.80
2018-11-29T03:45:41.402Z,68.03
2018-11-29T03:48:13.782Z,67.34
2018-11-29T03:50:45.380Z,67.14
2018-11-29T03:53:16.931Z,67.63
2018-11-29T03:55:48.393Z,67.41
2018-11-29T03:58:20.098Z,66.75
2018-11-29T04:00:51.681Z,67.19
2018-11-29T04:03:23.421Z,66.15
2018-11-29T04:05:54.929Z,66.30
2018-11-29T04:08:26.736Z,67.06
2018-11-29T04:10:58.959Z,67.39
2018-11-29T04:13:30.990Z,66.67
2018-11-29T04:16:02.735Z,67.00
2018-11-29T04:18:35.030Z,67.97
2018-11-29T04:21:06.930Z,67.75
2018-11-29T04:23:38.895Z,67.77
2018-11-29T04:26:10.761Z,68.33
2018-11-29T04:28:42.741Z,67.65
2018-11-29T04:31:15.951Z,68.91
2018-11-29T04:33:49.018Z,68.70
2018-11-29T04:36:20.858Z,68.71
2018-11-29T04:38:52.561Z,68.61
2018-11-29T04:41:24.191Z,69.22
2018-11-29T04:43:55.816Z,68.30
2018-11-29T04:46:49.509Z,69.32
2018-11-29T04:49:23.091Z,69.81
2018-11-29T04:51:58.278Z,69.85
2018-11-29T04:54:29.958Z,69.62
2018-11-29T04:57:01.613Z,69.47
2018-11-29T04:59:36.401Z,69.12
2018-11-29T05:02:08.773Z,69.11
2018-11-29T05:04:40.374Z,69.49
2018-11-29T05:07:12.958Z,69.49
2018-11-29T05:09:44.528Z,68.47
2018-11-29T05:12:18.739Z,68.39
2018-11-29T05:14:51.372Z,69.05
2018-11-29T05:17:23.050Z,69.25
2018-11-29T05:19:56.261Z,70.36
2018-11-29T05:22:27.755Z,69.42
2018-11-29T05:25:02.240Z,69.55
2018-11-29T05:27:38.713Z,70.11
2018-11-29T05:30:15.557Z,69.71
2018-11-29T05:32:47.111Z,69.89
2018-11-29T05:35:18.803Z,69.50
2018-11-29T05:37:50.349Z,70.20
2018-11-29T05:40:27.602Z,70.12
2018-11-29T05:43:00.447Z,70.04
2018-11-29T05:45:32.042Z,70.40
2018-11-29T05:48:03.660Z,71.56
2018-11-29T05:50:36.077Z,72.39
2018-11-29T05:53:09.603Z,72.46
2018-11-29T05:55:41.212Z,72.08
2018-11-29T05:58:13.074Z,71.58
2018-11-29T06:00:46.351Z,70.99
2018-11-29T06:03:18.839Z,67.80
2018-11-29T06:05:50.584Z,69.91
2018-11-29T06:08:22.057Z,70.60
2018-11-29T06:10:55.482Z,71.44
2018-11-29T06:13:27.457Z,70.87
2018-11-29T06:16:01.091Z,69.63
2018-11-29T06:18:32.588Z,69.40
2018-11-29T06:21:04.855Z,69.18
2018-11-29T06:23:37.452Z,67.06
2018-11-29T06:26:10.395Z,66.95
2018-11-29T06:28:42.126Z,68.13
2018-11-29T06:31:16.962Z,66.73
2018-11-29T06:33:48.504Z,66.76
2018-11-29T06:36:25.082Z,64.72
2018-11-29T06:38:56.844Z,65.25
2018-11-29T06:41:28.689Z,65.24
2018-11-29T06:44:05.164Z,65.35
2018-11-29T06:46:41.641Z,66.90
2018-11-29T06:49:13.335Z,66.09
2018-11-29T06:51:46.246Z,63.45
2018-11-29T06:54:18.119Z,63.74
2018-11-29T06:56:52.682Z,63.73
2018-11-29T06:59:24.560Z,63.67
2018-11-29T07:02:00.709Z,63.83
2018-11-29T07:04:33.636Z,62.89
2018-11-29T07:07:59.518Z,61.96
2018-11-29T07:10:37.467Z,62.53
2018-11-29T07:13:09.927Z,62.28
2018-11-29T07:15:41.568Z,63.37
2018-11-29T07:18:13.273Z,61.61
2018-11-29T07:20:49.348Z,60.63
2018-11-29T07:23:21.735Z,62.11
2018-11-29T07:25:53.643Z,61.57
2018-11-29T07:28:29.795Z,62.30
2018-11-29T07:31:09.143Z,62.47
2018-11-29T07:33:46.850Z,62.61
2018-11-29T07:36:18.451Z,62.07
2018-11-29T07:38:55.032Z,62.66
2018-11-29T07:41:26.706Z,62.10
2018-11-29T07:43:58.385Z,60.87
2018-11-29T07:46:30.756Z,61.40
2018-11-29T07:49:03.881Z,63.03
2018-11-29T07:51:35.596Z,61.23
2018-11-29T07:54:09.654Z,62.37
2018-11-29T07:56:42.701Z,65.08
2018-11-29T07:59:14.501Z,63.46
2018-11-29T08:01:46.052Z,60.64
2018-11-29T08:04:17.763Z,60.98
2018-11-29T08:06:49.375Z,61.32
2018-11-29T08:09:21.119Z,60.47
2018-11-29T08:11:52.662Z,60.76
2018-11-29T08:14:25.373Z,60.12
2018-11-29T08:16:56.976Z,60.22
2018-11-29T08:19:28.813Z,60.85
2018-11-29T08:22:00.615Z,62.32
2018-11-29T08:24:34.033Z,59.59
2018-11-29T08:27:12.931Z,59.55
2018-11-29T08:29:45.401Z,61.98
2018-11-29T08:32:17.051Z,62.82
2018-11-29T08:34:48.703Z,59.81
2018-11-29T08:37:23.919Z,61.49
2018-11-29T08:39:55.728Z,59.35
2018-11-29T08:42:27.867Z,61.78
2018-11-29T08:44:59.491Z,62.69
2018-11-29T08:47:31.258Z,62.17
2018-11-29T08:50:07.769Z,60.57
2018-11-29T08:52:40.806Z,59.66
2018-11-29T08:55:20.303Z,60.23
2018-11-29T08:57:52.925Z,60.60
2018-11-29T09:00:27.160Z,59.54
2018-11-29T09:02:59.089Z,59.02
2018-11-29T09:05:35.506Z,60.00
2018-11-29T09:08:08.266Z,60.23
2018-11-29T09:10:40.809Z,59.83
2018-11-29T09:13:16.611Z,60.77
2018-11-29T09:15:48.228Z,60.80
2018-11-29T09:18:19.958Z,59.60
2018-11-29T09:20:51.578Z,60.28
2018-11-29T09:23:26.843Z,59.96
2018-11-29T09:25:59.486Z,59.90
2018-11-29T09:28:32.670Z,60.17
2018-11-29T09:31:04.470Z,60.74
2018-11-29T09:33:36.672Z,60.31
2018-11-29T09:36:08.934Z,59.80
2018-11-29T09:38:40.715Z,59.98
2018-11-29T09:41:12.364Z,59.93
2018-11-29T09:43:44.606Z,60.11
2018-11-29T09:46:21.254Z,59.87
2018-11-29T09:48:55.077Z,59.64
2018-11-29T09:51:27.749Z,59.81
2018-11-29T09:53:59.671Z,60.43
2018-11-29T09:56:31.794Z,60.21
2018-11-29T09:59:03.764Z,60.98
2018-11-29T10:01:35.497Z,60.52
2018-11-29T10:04:07.584Z,60.45
2018-11-29T10:06:40.495Z,60.55
2018-11-29T10:09:14.186Z,61.05
2018-11-29T10:11:48.063Z,60.81
2018-11-29T10:14:19.800Z,61.80
2018-11-29T10:16:51.605Z,61.51
2018-11-29T10:19:23.233Z,61.82
2018-11-29T10:21:56.047Z,60.73
2018-11-29T10:24:27.415Z,59.91
2018-11-29T10:26:59.559Z,61.03
2018-11-29T10:29:34.875Z,61.71
2018-11-29T10:32:06.613Z,61.26
2018-11-29T10:34:38.191Z,61.18
2018-11-29T10:37:10.765Z,61.48
2018-11-29T10:39:42.616Z,61.53
2018-11-29T10:42:14.655Z,61.43
2018-11-29T10:44:46.263Z,61.28
2018-11-29T10:47:19.942Z,61.39
2018-11-29T10:49:54.676Z,61.14
2018-11-29T10:52:29.439Z,60.83
2018-11-29T10:55:02.057Z,61.15
2018-11-29T10:57:38.016Z,61.40
2018-11-29T11:00:18.958Z,61.64
2018-11-29T11:02:57.452Z,61.66
2018-11-29T11:05:29.008Z,62.67
2018-11-29T11:08:07.889Z,62.52
2018-11-29T11:10:33.884Z,63.09
2018-11-29T11:13:10.127Z,62.67
2018-11-29T11:15:42.047Z,62.87
2018-11-29T11:18:15.805Z,63.37
2018-11-29T11:20:49.432Z,62.84
2018-11-29T11:23:23.148Z,63.61
2018-11-29T11:25:54.898Z,63.44
2018-11-29T11:28:27.239Z,63.39
2018-11-29T11:31:02.112Z,62.88
2018-11-29T11:33:33.690Z,63.62
2018-11-29T11:36:06.756Z,63.64
2018-11-29T11:38:38.857Z,63.58
2018-11-29T11:41:10.556Z,63.09
2018-11-29T11:43:42.337Z,63.98
2018-11-29T11:46:14.031Z,63.43
2018-11-29T11:48:46.046Z,63.67
2018-11-29T11:51:18.989Z,63.26
2018-11-29T11:53:50.780Z,63.89
2018-11-29T11:56:22.634Z,63.94
2018-11-29T11:59:00.839Z,63.99
2018-11-29T12:01:32.404Z,63.54
2018-11-29T12:04:04.921Z,63.81
2018-11-29T12:06:36.609Z,64.23
2018-11-29T12:09:11.233Z,64.37
2018-11-29T12:11:43.839Z,63.68
2018-11-29T12:14:15.536Z,64.13
2018-11-29T12:16:50.852Z,64.85
2018-11-29T12:19:23.716Z,64.39
2018-11-29T12:21:55.451Z,65.47
2018-11-29T12:24:27.318Z,65.27
2018-11-29T12:29:31.261Z,66.02
2018-11-29T12:32:03.401Z,67.06
2018-11-29T12:34:41.919Z,66.70
2018-11-29T12:37:17.958Z,66.27
2018-11-29T12:39:50.043Z,67.20
2018-11-29T12:42:21.647Z,67.03
2018-11-29T12:44:57.134Z,67.17
2018-11-29T12:47:39.212Z,67.12
2018-11-29T12:50:15.868Z,67.24
2018-11-29T12:52:47.231Z,67.79
2018-11-29T12:55:24.328Z,67.34
2018-11-29T12:58:05.404Z,67.61
2018-11-29T13:00:28.582Z,67.83
2018-11-29T13:03:00.971Z,67.84
2018-11-29T13:05:38.372Z,67.63
2018-11-29T13:08:10.574Z,67.37
2018-11-29T13:10:43.281Z,68.11
2018-11-29T13:13:15.255Z,68.14
2018-11-29T13:15:46.998Z,67.37
2018-11-29T13:18:18.717Z,67.98
2018-11-29T13:20:50.458Z,67.65
2018-11-29T13:23:23.974Z,67.77
2018-11-29T13:25:58.966Z,67.78
2018-11-29T13:28:30.462Z,67.88
2018-11-29T13:31:02.965Z,67.31
2018-11-29T13:33:34.622Z,66.54
2018-11-29T13:36:06.889Z,66.55
2018-11-29T13:38:38.887Z,67.08
2018-11-29T13:41:10.698Z,66.66
2018-11-29T13:43:42.195Z,67.11
2018-11-29T13:46:13.795Z,67.68
2018-11-29T13:48:45.197Z,68.30
2018-11-29T13:51:16.672Z,67.52
2018-11-29T13:53:48.192Z,68.02
2018-11-29T13:56:20.847Z,68.22
2018-11-29T13:58:56.189Z,68.12
2018-11-29T14:01:29.295Z,67.87
2018-11-29T14:04:04.864Z,68.02
2018-11-29T14:06:37.376Z,67.62
2018-11-29T14:09:10.913Z,67.04
2018-11-29T14:11:43.524Z,67.91
2018-11-29T14:14:14.947Z,68.21
2018-11-29T14:16:46.563Z,28.58
2018-11-29T14:19:22.140Z,19.97
2018-11-29T14:21:53.704Z,17.71
2018-11-29T14:24:27.672Z,18.72
2018-11-29T14:26:59.464Z,16.76
2018-11-29T14:29:31.056Z,16.54
2018-11-29T14:32:05.402Z,17.03
2018-11-29T14:34:36.965Z,16.44
2018-11-29T14:37:11.930Z,16.40
2018-11-29T14:39:44.096Z,18.08
2018-11-29T14:42:16.883Z,17.39
2018-11-29T14:44:48.565Z,17.49
2018-11-29T14:47:26.740Z,17.90
2018-11-29T14:49:59.325Z,17.98
2018-11-29T14:52:43.493Z,17.58
2018-11-29T14:55:22.016Z,17.76
2018-11-29T14:57:53.677Z,17.58
2018-11-29T15:03:25.095Z,17.74
2018-11-29T15:05:56.567Z,18.15
2018-11-29T15:08:29.094Z,18.78
2018-11-29T15:11:01.686Z,19.01
2018-11-29T15:13:33.996Z,16.39
2018-11-29T15:16:05.697Z,36.41
2018-11-29T15:18:37.489Z,36.41
2018-11-29T15:21:09.053Z,60.25
2018-11-29T15:23:41.205Z,63.01
2018-11-29T15:26:12.988Z,63.80
2018-11-29T15:28:44.516Z,64.69
2018-11-29T15:31:16.212Z,66.15
2018-11-29T15:33:51.849Z,65.74
2018-11-29T15:36:23.372Z,66.53
2018-11-29T15:38:54.905Z,66.99
2018-11-29T15:41:26.248Z,66.85
2018-11-29T15:43:57.834Z,67.00
2018-11-29T15:46:36.488Z,67.52
2018-11-29T15:49:08.375Z,67.84
2018-11-29T15:51:40.157Z,67.94
2018-11-29T15:54:11.807Z,68.81
2018-11-29T15:56:43.477Z,68.41
2018-11-29T15:59:14.832Z,68.50
2018-11-29T16:01:46.339Z,68.46
2018-11-29T16:04:19.559Z,68.56
2018-11-29T16:06:51.035Z,68.83
2018-11-29T16:09:22.624Z,68.87
2018-11-29T16:11:54.226Z,68.62
2018-11-29T16:14:25.914Z,69.08
2018-11-29T16:16:57.682Z,69.29
2018-11-29T16:19:32.255Z,69.67
2018-11-29T16:22:09.255Z,69.30
2018-11-29T16:24:46.778Z,69.92
2018-11-29T16:27:23.655Z,68.85
2018-11-29T16:29:58.763Z,69.51
2018-11-29T16:32:30.895Z,69.88
2018-11-29T16:35:09.805Z,69.33
2018-11-29T16:37:41.503Z,69.75
2018-11-29T16:40:18.539Z,70.17
2018-11-29T16:42:56.886Z,70.06
2018-11-29T16:45:28.632Z,70.06
2018-11-29T16:48:01.182Z,70.09
2018-11-29T16:50:33.823Z,70.16
2018-11-29T16:53:10.636Z,70.19
2018-11-29T16:55:48.804Z,70.45
2018-11-29T16:58:26.743Z,70.76
2018-11-29T17:01:08.651Z,70.87
2018-11-29T17:03:36.780Z,71.60
2018-11-29T17:06:08.920Z,70.63
2018-11-29T17:08:40.723Z,70.58
2018-11-29T17:11:12.440Z,71.35
2018-11-29T17:13:49.670Z,71.34
2018-11-29T17:16:26.775Z,70.92
2018-11-29T17:19:01.686Z,71.55
2018-11-29T17:21:35.316Z,72.06
2018-11-29T17:24:07.342Z,71.49
2018-11-29T17:26:38.888Z,72.02
2018-11-29T17:29:11.733Z,71.48
2018-11-29T17:31:43.254Z,71.95
2018-11-29T17:34:15.012Z,71.60
2018-11-29T17:36:47.009Z,72.01
2018-11-29T17:39:23.213Z,71.43
2018-11-29T17:41:56.694Z,71.44
2018-11-29T17:44:29.593Z,71.53
2018-11-29T17:47:04.473Z,71.32
2018-11-29T17:49:37.163Z,71.94
2018-11-29T17:52:13.254Z,71.78
2018-11-29T17:54:44.967Z,72.64
2018-11-29T17:57:16.530Z,71.95
2018-11-29T17:59:48.245Z,71.79
2018-11-29T18:02:19.745Z,72.00
2018-11-29T18:04:51.372Z,71.75
2018-11-29T18:07:25.001Z,72.87
2018-11-29T18:09:56.663Z,72.80
2018-11-29T18:12:28.263Z,71.63
2018-11-29T18:15:00.048Z,72.00
2018-11-29T18:17:33.746Z,71.77
2018-11-29T18:20:05.317Z,71.99
2018-11-29T18:22:38.584Z,72.23
2018-11-29T18:25:13.412Z,72.25
2018-11-29T18:27:47.259Z,73.00
2018-11-29T18:30:19.963Z,72.98
2018-11-29T18:32:51.659Z,72.95
2018-11-29T18:35:23.406Z,72.52
2018-11-29T18:37:55.531Z,72.44
2018-11-29T18:40:28.229Z,72.71
2018-11-29T18:43:01.557Z,72.95
2018-11-29T18:45:33.370Z,72.50
2018-11-29T18:48:04.847Z,72.96
2018-11-29T18:50:36.604Z,72.82
2018-11-29T18:53:08.549Z,72.76
2018-11-29T18:55:41.181Z,72.47
2018-11-29T18:58:13.081Z,72.50
2018-11-29T19:00:44.957Z,72.72
2018-11-29T19:03:16.408Z,72.52
2018-11-29T19:05:48.174Z,73.37
2018-11-29T19:08:20.191Z,73.52
2018-11-29T19:10:52.839Z,73.09
2018-11-29T19:13:24.356Z,73.63
2018-11-29T19:15:56.063Z,73.93
2018-11-29T19:18:27.675Z,73.26
2018-11-29T19:20:59.234Z,73.80
2018-11-29T19:23:30.715Z,73.14
2018-11-29T19:26:02.920Z,73.35
2018-11-29T19:28:34.368Z,73.67
2018-11-29T19:31:06.247Z,73.07
2018-11-29T19:33:38.860Z,73.90
2018-11-29T19:36:10.316Z,73.52
2018-11-29T19:38:42.351Z,73.31
2018-11-29T19:41:14.106Z,73.43
2018-11-29T19:43:46.544Z,73.32
2018-11-29T19:46:18.239Z,73.51
2018-11-29T19:48:49.747Z,73.51
2018-11-29T19:51:24.360Z,74.00
2018-11-29T19:53:56.140Z,55.57
2018-11-29T19:56:27.923Z,73.02
2018-11-29T19:58:59.555Z,72.98
2018-11-29T20:01:31.393Z,73.20
2018-11-29T20:04:02.996Z,73.31
2018-11-29T20:06:34.601Z,73.08
2018-11-29T20:09:07.861Z,73.67
2018-11-29T20:11:39.824Z,73.25
2018-11-29T20:14:11.429Z,73.69
2018-11-29T20:16:42.934Z,74.00
2018-11-29T20:19:14.532Z,73.36
2018-11-29T20:21:46.135Z,74.13
2018-11-29T20:24:17.599Z,73.49
2018-11-29T20:26:49.150Z,73.96
2018-11-29T20:29:20.657Z,73.46
2018-11-29T20:31:52.284Z,73.38
2018-11-29T20:34:23.817Z,73.36
2018-11-29T20:36:56.469Z,73.11
2018-11-29T20:39:28.353Z,73.60
2018-11-29T20:42:00.738Z,73.97
2018-11-29T20:44:32.430Z,73.93
2018-11-29T20:47:04.998Z,73.92
2018-11-29T20:49:36.546Z,73.73
2018-11-29T20:52:08.463Z,74.07
2018-11-29T20:54:40.034Z,74.40
2018-11-29T20:57:12.131Z,74.52
2018-11-29T20:59:43.688Z,74.32
2018-11-29T21:02:15.710Z,73.99
2018-11-29T21:04:47.442Z,73.98
2018-11-29T21:07:19.077Z,74.59
2018-11-29T21:14:15.599Z,70.43
